createdAt,value
2022-12-22T00:01:04.863Z,28.67
2022-12-22T00:06:28.292Z,27.13
2022-12-22T00:11:48.399Z,28.55
2022-12-22T00:17:08.465Z,25.25
2022-12-22T00:22:41.201Z,28.20
2022-12-22T00:28:01.306Z,27.48
2022-12-22T00:33:23.801Z,26.45
2022-12-22T00:38:43.820Z,28.38
2022-12-22T00:44:04.072Z,32.25
2022-12-22T00:49:24.142Z,29.90
2022-12-22T00:54:44.156Z,27.58
2022-12-22T01:00:05.461Z,30.35
2022-12-22T01:05:26.188Z,40.30
2022-12-22T01:10:46.259Z,33.47
2022-12-22T01:16:06.354Z,34.45
2022-12-22T01:21:27.243Z,33.63
2022-12-22T01:26:47.037Z,35.90
2022-12-22T01:32:06.902Z,32.97
2022-12-22T01:37:27.022Z,26.38
2022-12-22T01:42:49.817Z,25.63
2022-12-22T01:48:09.870Z,23.00
2022-12-22T01:53:36.310Z,21.85
2022-12-22T01:59:00.894Z,27.02
2022-12-22T02:04:21.047Z,18.98
2022-12-22T02:09:44.197Z,17.90
2022-12-22T02:15:19.874Z,16.17
2022-12-22T02:20:48.983Z,19.00
2022-12-22T02:26:18.112Z,14.90
2022-12-22T02:31:38.124Z,14.55
2022-12-22T02:37:41.004Z,13.52
2022-12-22T02:43:13.225Z,13.80
2022-12-22T02:48:40.713Z,13.45
2022-12-22T02:54:00.914Z,13.75
2022-12-22T02:59:21.003Z,12.52
2022-12-22T03:04:41.234Z,12.45
2022-12-22T03:10:01.306Z,12.43
2022-12-22T03:15:21.366Z,11.98
2022-12-22T03:20:41.504Z,11.48
2022-12-22T03:25:53.200Z,11.38
2022-12-22T03:31:04.614Z,11.68
2022-12-22T03:36:07.138Z,9.32
2022-12-22T03:41:28.555Z,7.70
2022-12-22T03:46:33.079Z,11.35
2022-12-22T03:51:36.202Z,10.15
2022-12-22T03:56:37.673Z,11.57
2022-12-22T04:01:42.456Z,28.67
2022-12-22T04:06:44.566Z,11.75
2022-12-22T04:12:04.654Z,8.32
2022-12-22T04:17:07.337Z,8.40
2022-12-22T04:22:08.895Z,8.20
2022-12-22T04:27:10.340Z,7.90
2022-12-22T04:32:11.837Z,11.10
2022-12-22T04:37:17.400Z,8.20
2022-12-22T04:42:19.375Z,10.60
2022-12-22T04:47:20.810Z,22.17
2022-12-22T04:52:22.695Z,19.15
2022-12-22T04:57:24.176Z,11.25
2022-12-22T05:02:25.692Z,8.55
2022-12-22T05:07:27.265Z,11.07
2022-12-22T05:12:49.110Z,10.05
2022-12-22T05:17:50.740Z,11.38
2022-12-22T05:22:52.221Z,11.57
2022-12-22T05:27:53.699Z,8.95
2022-12-22T05:32:55.182Z,9.13
2022-12-22T05:37:56.709Z,10.38
2022-12-22T05:42:58.150Z,10.98
2022-12-22T05:47:59.575Z,13.50
2022-12-22T05:53:01.025Z,10.95
2022-12-22T05:58:02.657Z,12.65
2022-12-22T06:03:04.315Z,12.20
2022-12-22T06:08:05.762Z,12.68
2022-12-22T06:13:07.208Z,12.55
2022-12-22T06:18:08.632Z,11.98
2022-12-22T06:23:10.058Z,11.50
2022-12-22T06:28:11.482Z,10.98
2022-12-22T06:33:12.920Z,10.98
2022-12-22T06:38:14.364Z,12.43
2022-12-22T06:43:15.859Z,12.63
2022-12-22T06:48:17.400Z,12.05
2022-12-22T06:53:18.842Z,16.15
2022-12-22T06:58:20.273Z,14.95
2022-12-22T07:03:21.809Z,18.10
2022-12-22T07:08:23.352Z,20.15
2022-12-22T07:13:31.565Z,18.45
2022-12-22T07:18:35.282Z,13.80
2022-12-22T07:23:37.565Z,14.75
2022-12-22T07:28:40.963Z,14.95
2022-12-22T07:33:42.419Z,16.88
2022-12-22T07:38:46.637Z,29.80
2022-12-22T07:43:48.121Z,20.10
2022-12-22T07:49:08.266Z,21.77
2022-12-22T07:54:12.093Z,17.10
2022-12-22T07:59:14.352Z,16.40
2022-12-22T08:04:15.944Z,20.33
2022-12-22T08:09:18.105Z,17.88
2022-12-22T08:14:19.567Z,17.48
2022-12-22T08:19:21.011Z,16.63
2022-12-22T08:24:22.594Z,16.95
2022-12-22T08:29:29.110Z,18.40
2022-12-22T08:34:30.801Z,17.88
2022-12-22T08:39:37.561Z,19.20
2022-12-22T08:44:39.133Z,18.30
2022-12-22T08:49:41.134Z,20.73
2022-12-22T08:54:42.778Z,20.95
2022-12-22T08:59:44.246Z,27.38
2022-12-22T09:04:45.801Z,22.02
2022-12-22T09:09:47.243Z,21.70
2022-12-22T09:14:48.834Z,22.63
2022-12-22T09:19:50.287Z,20.27
2022-12-22T09:24:51.736Z,18.25
2022-12-22T09:29:53.199Z,20.73
2022-12-22T09:34:54.638Z,21.48
2022-12-22T09:39:56.108Z,18.48
2022-12-22T09:44:57.601Z,12.95
2022-12-22T09:49:59.513Z,12.15
2022-12-22T09:55:12.384Z,12.57
2022-12-22T10:00:16.263Z,19.35
2022-12-22T10:05:30.967Z,14.70
2022-12-22T10:10:32.544Z,13.80
2022-12-22T10:15:39.883Z,11.38
2022-12-22T10:20:44.685Z,10.10
2022-12-22T10:31:22.922Z,11.93
2022-12-22T10:36:28.001Z,13.32
2022-12-22T10:41:32.877Z,13.32
2022-12-22T10:46:48.181Z,12.75
2022-12-22T10:52:09.911Z,11.23
2022-12-22T10:57:14.043Z,15.45
2022-12-22T11:02:22.619Z,16.48
2022-12-22T11:07:25.017Z,12.40
2022-12-22T11:12:47.409Z,12.70
2022-12-22T11:17:57.796Z,13.45
2022-12-22T11:23:18.322Z,12.55
2022-12-22T11:28:45.944Z,13.65
2022-12-22T11:34:20.779Z,14.40
2022-12-22T11:45:29.264Z,14.48
2022-12-22T11:51:00.345Z,14.43
2022-12-22T11:56:32.098Z,17.10
2022-12-22T12:01:48.722Z,13.32
2022-12-22T12:07:00.921Z,12.65
2022-12-22T12:12:13.116Z,11.82
2022-12-22T12:17:25.123Z,14.75
2022-12-22T12:22:52.803Z,10.00
2022-12-22T12:28:05.439Z,13.80
2022-12-22T12:33:28.492Z,7.80
2022-12-22T12:39:07.440Z,7.18
2022-12-22T12:44:04.876Z,7.55
2022-12-22T12:49:36.246Z,7.13
2022-12-22T12:54:41.583Z,6.07
2022-12-22T12:59:47.238Z,6.18
2022-12-22T13:05:14.330Z,8.85
2022-12-22T13:10:21.955Z,6.38
2022-12-22T13:15:37.475Z,11.57
2022-12-22T13:20:42.548Z,10.38
2022-12-22T13:25:55.096Z,14.40
2022-12-22T13:31:13.826Z,14.25
2022-12-22T13:36:22.026Z,11.77
2022-12-22T13:48:06.135Z,9.82
2022-12-22T13:53:34.439Z,8.52
2022-12-22T13:58:41.548Z,9.00
2022-12-22T14:04:04.794Z,12.05
2022-12-22T14:09:18.464Z,17.25
2022-12-22T14:14:24.665Z,11.70
2022-12-22T14:19:33.720Z,13.05
2022-12-22T14:24:44.505Z,12.27
2022-12-22T14:29:46.067Z,12.85
2022-12-22T14:34:53.988Z,9.13
2022-12-22T14:39:56.392Z,10.02
2022-12-22T14:44:58.346Z,13.43
2022-12-22T14:50:16.885Z,14.30
2022-12-22T14:55:25.298Z,11.73
2022-12-22T15:00:34.008Z,12.70
2022-12-22T15:05:39.060Z,13.73
2022-12-22T15:10:44.645Z,9.90
2022-12-22T15:15:46.068Z,9.43
2022-12-22T15:20:47.492Z,9.75
2022-12-22T15:25:48.989Z,10.48
2022-12-22T15:30:50.425Z,10.73
2022-12-22T15:35:52.538Z,10.90
2022-12-22T15:41:00.271Z,10.15
2022-12-22T15:46:03.677Z,12.75
2022-12-22T15:51:08.579Z,11.20
2022-12-22T15:56:18.088Z,12.77
2022-12-22T16:01:20.410Z,13.60
2022-12-22T16:06:22.823Z,11.25
2022-12-22T16:11:25.058Z,13.77
2022-12-22T16:16:26.527Z,12.68
2022-12-22T16:21:31.619Z,10.73
2022-12-22T16:26:33.139Z,10.57
2022-12-22T16:31:34.625Z,10.70
2022-12-22T16:36:36.084Z,12.07
2022-12-22T16:41:37.920Z,10.02
2022-12-22T16:46:39.603Z,10.80
2022-12-22T16:51:49.625Z,14.52
2022-12-22T16:56:57.449Z,15.27
2022-12-22T17:01:59.045Z,29.17
2022-12-22T17:07:02.168Z,16.30
2022-12-22T17:12:10.746Z,26.35
2022-12-22T17:17:32.889Z,21.90
2022-12-22T17:22:39.180Z,15.07
2022-12-22T17:27:40.839Z,14.52
2022-12-22T17:32:42.385Z,16.23
2022-12-22T17:37:46.186Z,19.42
2022-12-22T17:42:47.773Z,16.83
2022-12-22T17:47:49.212Z,16.95
2022-12-22T17:52:50.764Z,14.55
2022-12-22T17:57:53.542Z,10.43
2022-12-22T18:02:55.605Z,9.27
2022-12-22T18:07:58.948Z,11.45
2022-12-22T18:13:01.582Z,10.38
2022-12-22T18:18:03.104Z,11.02
2022-12-22T18:23:04.904Z,10.30
2022-12-22T18:28:06.767Z,9.43
2022-12-22T18:33:08.943Z,10.50
2022-12-22T18:38:32.958Z,10.80
2022-12-22T18:43:34.430Z,11.43
2022-12-22T18:48:35.890Z,11.95
2022-12-22T18:53:37.313Z,10.60
2022-12-22T18:58:39.790Z,8.02
2022-12-22T19:03:41.229Z,9.75
2022-12-22T19:08:45.989Z,9.27
2022-12-22T19:13:51.965Z,10.00
2022-12-22T19:18:55.097Z,10.00
2022-12-22T19:23:56.542Z,8.95
2022-12-22T19:29:01.460Z,9.07
2022-12-22T19:34:05.421Z,8.88
2022-12-22T19:39:06.909Z,8.35
2022-12-22T19:44:17.196Z,8.52
2022-12-22T19:49:22.406Z,9.38
2022-12-22T19:54:24.379Z,12.73
2022-12-22T19:59:38.531Z,11.27
2022-12-22T20:04:40.705Z,10.93
2022-12-22T20:09:42.257Z,13.55
2022-12-22T20:14:43.762Z,7.45
2022-12-22T20:19:45.187Z,11.35
2022-12-22T20:24:48.669Z,10.45
2022-12-22T20:29:50.180Z,8.93
2022-12-22T20:34:51.627Z,8.80
2022-12-22T20:39:53.081Z,10.15
2022-12-22T20:45:02.791Z,9.48
2022-12-22T20:50:23.904Z,9.75
2022-12-22T20:55:28.438Z,12.27
2022-12-22T21:00:29.891Z,12.43
2022-12-22T21:05:31.370Z,11.10
2022-12-22T21:10:32.782Z,10.07
2022-12-22T21:15:34.624Z,10.70
2022-12-22T21:20:36.052Z,9.55
2022-12-22T21:25:43.181Z,10.43
2022-12-22T21:30:47.838Z,10.45
2022-12-22T21:35:50.849Z,19.08
2022-12-22T21:40:52.318Z,13.20
2022-12-22T21:45:53.858Z,10.93
2022-12-22T21:50:55.724Z,9.45
2022-12-22T21:55:57.145Z,11.20
2022-12-22T22:00:58.624Z,9.35
2022-12-22T22:06:00.116Z,7.78
2022-12-22T22:11:01.537Z,8.05
2022-12-22T22:16:03.113Z,9.98
2022-12-22T22:21:07.690Z,10.63
2022-12-22T22:26:09.851Z,9.73
2022-12-22T22:31:11.683Z,9.07
2022-12-22T22:36:13.765Z,9.32
2022-12-22T22:41:15.277Z,11.60
2022-12-22T22:46:16.749Z,10.00
2022-12-22T22:51:18.185Z,9.00
2022-12-22T22:56:19.613Z,9.57
2022-12-22T23:01:21.076Z,9.18
2022-12-22T23:06:22.573Z,9.32
2022-12-22T23:11:24.030Z,8.38
2022-12-22T23:16:25.704Z,7.03
2022-12-22T23:21:27.511Z,7.72
2022-12-22T23:26:28.985Z,9.20
2022-12-22T23:31:34.381Z,9.80
2022-12-22T23:36:35.865Z,10.52
2022-12-22T23:41:37.353Z,7.95
2022-12-22T23:46:40.102Z,9.45
2022-12-22T23:51:41.608Z,9.40
2022-12-22T23:56:43.068Z,9.77
